createdAt,value
2023-05-06T00:00:40.221Z,2.10
2023-05-06T00:03:08.316Z,1.53
2023-05-06T00:05:35.754Z,1.83
2023-05-06T00:08:03.024Z,1.17
2023-05-06T00:10:30.837Z,0.60
2023-05-06T00:12:58.239Z,0.70
2023-05-06T00:15:25.994Z,0.50
2023-05-06T00:17:53.838Z,0.60
2023-05-06T00:20:21.618Z,1.70
2023-05-06T00:22:49.304Z,1.77
2023-05-06T00:25:16.647Z,2.30
2023-05-06T00:27:43.966Z,2.13
2023-05-06T00:30:12.105Z,3.13
2023-05-06T00:32:39.823Z,3.23
2023-05-06T00:35:07.888Z,2.00
2023-05-06T00:37:35.633Z,2.20
2023-05-06T00:40:03.868Z,1.30
2023-05-06T00:42:33.995Z,0.60
2023-05-06T00:45:01.985Z,0.60
2023-05-06T00:47:29.584Z,0.80
2023-05-06T00:49:57.027Z,0.60
2023-05-06T00:52:24.640Z,0.60
2023-05-06T00:54:52.240Z,0.73
2023-05-06T00:57:19.684Z,1.43
2023-05-06T00:59:47.626Z,2.40
2023-05-06T01:02:14.917Z,2.30
2023-05-06T01:04:42.227Z,2.67
2023-05-06T01:07:21.455Z,2.60
2023-05-06T01:09:59.672Z,1.77
2023-05-06T01:12:31.594Z,0.50
2023-05-06T01:15:17.158Z,0.80
2023-05-06T01:17:50.897Z,2.40
2023-05-06T01:20:21.733Z,1.97
2023-05-06T01:22:50.804Z,1.80
2023-05-06T01:25:22.262Z,2.10
2023-05-06T01:27:50.358Z,1.43
2023-05-06T01:30:18.822Z,2.47
2023-05-06T01:33:07.225Z,2.07
2023-05-06T01:35:56.185Z,1.10
2023-05-06T01:38:49.554Z,0.70
2023-05-06T01:41:17.737Z,2.20
2023-05-06T01:43:45.812Z,2.40
2023-05-06T01:46:16.354Z,2.50
2023-05-06T01:48:43.945Z,2.20
2023-05-06T01:51:11.193Z,3.17
2023-05-06T01:53:39.074Z,2.47
2023-05-06T01:56:07.135Z,1.80
2023-05-06T01:58:34.267Z,1.00
2023-05-06T02:01:01.846Z,0.90
2023-05-06T02:03:30.462Z,0.70
2023-05-06T02:06:02.444Z,0.60
2023-05-06T02:08:30.222Z,0.60
2023-05-06T02:10:58.212Z,0.60
2023-05-06T02:13:25.540Z,0.60
2023-05-06T02:15:54.863Z,0.70
2023-05-06T02:18:22.812Z,0.70
2023-05-06T02:20:50.095Z,1.13
2023-05-06T02:23:18.089Z,2.50
2023-05-06T02:25:45.411Z,2.10
2023-05-06T02:28:12.730Z,2.47
2023-05-06T02:30:39.996Z,2.30
2023-05-06T02:33:07.378Z,1.70
2023-05-06T02:35:34.876Z,0.80
2023-05-06T02:38:02.386Z,0.87
2023-05-06T02:40:30.052Z,0.60
2023-05-06T02:42:57.447Z,0.60
2023-05-06T02:45:25.154Z,0.60
2023-05-06T02:47:52.889Z,0.53
2023-05-06T02:50:20.217Z,1.53
2023-05-06T02:52:47.546Z,2.03
2023-05-06T02:55:14.838Z,2.20
2023-05-06T02:57:42.090Z,3.20
2023-05-06T03:00:11.348Z,2.47
2023-05-06T03:02:38.926Z,2.40
2023-05-06T03:05:07.011Z,1.87
2023-05-06T03:07:36.275Z,1.17
2023-05-06T03:10:03.901Z,1.07
2023-05-06T03:12:31.419Z,0.77
2023-05-06T03:14:58.874Z,0.70
2023-05-06T03:17:26.245Z,0.60
2023-05-06T03:19:53.543Z,0.60
2023-05-06T03:22:20.971Z,1.47
2023-05-06T03:24:48.254Z,2.47
2023-05-06T03:27:15.909Z,2.50
2023-05-06T03:29:43.226Z,2.83
2023-05-06T03:32:10.684Z,3.33
2023-05-06T03:34:37.985Z,1.30
2023-05-06T03:37:05.325Z,1.43
2023-05-06T03:39:32.912Z,1.00
2023-05-06T03:42:01.330Z,0.60
2023-05-06T03:44:29.043Z,0.60
2023-05-06T03:46:56.596Z,0.67
2023-05-06T03:49:24.686Z,1.07
2023-05-06T03:51:54.014Z,0.80
2023-05-06T03:54:21.858Z,1.40
2023-05-06T03:56:49.780Z,1.83
2023-05-06T03:59:17.523Z,2.40
2023-05-06T04:01:46.128Z,2.10
2023-05-06T04:04:14.027Z,2.43
2023-05-06T04:06:41.979Z,2.87
2023-05-06T04:09:10.189Z,2.10
2023-05-06T04:11:38.361Z,1.37
2023-05-06T04:14:06.069Z,2.20
2023-05-06T04:16:33.357Z,0.97
2023-05-06T04:19:02.524Z,0.60
2023-05-06T04:21:32.138Z,0.60
2023-05-06T04:23:59.992Z,0.70
2023-05-06T04:26:27.369Z,0.90
2023-05-06T04:28:54.732Z,0.90
2023-05-06T04:31:23.684Z,1.10
2023-05-06T04:33:50.939Z,7.63
2023-05-06T04:36:19.221Z,2.77
2023-05-06T04:38:48.149Z,2.60
2023-05-06T04:41:15.979Z,2.67
2023-05-06T04:43:43.414Z,2.23
2023-05-06T04:46:11.034Z,4.00
2023-05-06T04:48:38.726Z,2.60
2023-05-06T04:51:06.133Z,2.10
2023-05-06T04:53:33.527Z,1.00
2023-05-06T04:56:01.228Z,0.60
2023-05-06T04:58:29.128Z,0.60
2023-05-06T05:00:57.562Z,0.80
2023-05-06T05:03:25.683Z,0.80
2023-05-06T05:05:53.240Z,0.70
2023-05-06T05:08:20.683Z,1.57
2023-05-06T05:10:48.113Z,2.30
2023-05-06T05:13:16.000Z,2.50
2023-05-06T05:15:43.414Z,2.40
2023-05-06T05:18:10.830Z,2.60
2023-05-06T05:20:38.456Z,1.57
2023-05-06T05:23:06.220Z,2.27
2023-05-06T05:25:33.861Z,0.97
2023-05-06T05:28:01.187Z,0.60
2023-05-06T05:30:28.618Z,0.70
2023-05-06T05:32:55.885Z,0.70
2023-05-06T05:35:23.321Z,0.90
2023-05-06T05:37:50.610Z,2.70
2023-05-06T05:40:18.068Z,2.50
2023-05-06T05:42:45.759Z,1.90
2023-05-06T05:45:13.017Z,1.93
2023-05-06T05:47:40.474Z,1.80
2023-05-06T05:50:08.392Z,1.57
2023-05-06T05:52:35.665Z,1.57
2023-05-06T05:55:02.984Z,1.00
2023-05-06T05:57:31.311Z,0.60
2023-05-06T05:59:58.905Z,0.77
2023-05-06T06:02:26.526Z,0.70
2023-05-06T06:04:53.884Z,0.70
2023-05-06T06:07:21.276Z,2.37
2023-05-06T06:09:49.172Z,1.73
2023-05-06T06:12:16.563Z,1.93
2023-05-06T06:14:48.222Z,1.90
2023-05-06T06:17:16.267Z,2.00
2023-05-06T06:19:50.986Z,2.10
2023-05-06T06:22:18.538Z,2.03
2023-05-06T06:24:46.011Z,2.00
2023-05-06T06:27:13.461Z,2.20
2023-05-06T06:29:40.632Z,2.30
2023-05-06T06:32:08.171Z,1.37
2023-05-06T06:34:35.454Z,1.20
2023-05-06T06:37:02.747Z,0.90
2023-05-06T06:39:30.200Z,0.70
2023-05-06T06:42:04.575Z,0.60
2023-05-06T06:44:32.325Z,0.60
2023-05-06T06:46:59.761Z,1.07
2023-05-06T06:49:28.032Z,0.60
2023-05-06T06:51:57.895Z,0.60
2023-05-06T06:54:25.452Z,0.90
2023-05-06T06:56:58.984Z,0.60
2023-05-06T06:59:26.290Z,0.70
2023-05-06T07:01:53.586Z,0.60
2023-05-06T07:04:20.948Z,0.90
2023-05-06T07:06:48.414Z,1.73
2023-05-06T07:09:15.678Z,1.53
2023-05-06T07:11:42.907Z,1.83
2023-05-06T07:14:11.122Z,2.20
2023-05-06T07:16:38.554Z,1.33
2023-05-06T07:19:06.514Z,1.57
2023-05-06T07:21:33.765Z,0.83
2023-05-06T07:24:01.602Z,0.60
2023-05-06T07:26:29.615Z,0.60
2023-05-06T07:28:57.066Z,0.60
2023-05-06T07:31:24.310Z,0.60
2023-05-06T07:33:51.550Z,0.77
2023-05-06T07:36:18.926Z,1.63
2023-05-06T07:38:46.127Z,1.47
2023-05-06T07:41:13.697Z,1.70
2023-05-06T07:43:40.893Z,1.70
2023-05-06T07:46:08.253Z,1.20
2023-05-06T07:48:35.596Z,1.27
2023-05-06T07:51:03.857Z,2.20
2023-05-06T07:53:31.539Z,1.33
2023-05-06T07:56:02.499Z,0.50
2023-05-06T07:58:31.573Z,0.97
2023-05-06T08:00:59.430Z,0.60
2023-05-06T08:03:27.317Z,0.80
2023-05-06T08:05:55.615Z,0.70
2023-05-06T08:08:23.644Z,0.50
2023-05-06T08:10:50.867Z,0.80
2023-05-06T08:13:18.252Z,1.33
2023-05-06T08:15:45.620Z,1.27
2023-05-06T08:18:21.590Z,1.80
2023-05-06T08:20:51.411Z,1.03
2023-05-06T08:23:18.667Z,1.17
2023-05-06T08:25:47.046Z,1.77
2023-05-06T08:28:14.406Z,1.27
2023-05-06T08:30:41.741Z,1.60
2023-05-06T08:33:09.074Z,1.60
2023-05-06T08:35:36.899Z,1.20
2023-05-06T08:38:04.138Z,1.33
2023-05-06T08:40:33.855Z,0.50
2023-05-06T08:43:04.054Z,0.50
2023-05-06T08:45:32.354Z,0.50
2023-05-06T08:48:00.267Z,0.60
2023-05-06T08:50:27.944Z,0.50
2023-05-06T08:52:55.378Z,0.50
2023-05-06T08:55:23.839Z,0.80
2023-05-06T08:57:53.716Z,1.27
2023-05-06T09:00:21.088Z,0.90
2023-05-06T09:02:48.533Z,2.73
2023-05-06T09:05:16.682Z,1.27
2023-05-06T09:07:43.923Z,1.17
2023-05-06T09:10:15.052Z,1.23
2023-05-06T09:12:42.538Z,1.30
2023-05-06T09:15:10.961Z,1.27
2023-05-06T09:17:38.864Z,1.00
2023-05-06T09:20:09.771Z,1.47
2023-05-06T09:22:38.560Z,0.87
2023-05-06T09:25:06.615Z,0.70
2023-05-06T09:27:35.281Z,0.70
2023-05-06T09:30:09.321Z,0.50
2023-05-06T09:32:39.778Z,1.03
2023-05-06T09:35:08.754Z,1.00
2023-05-06T09:37:36.628Z,1.20
2023-05-06T09:40:04.209Z,0.60
2023-05-06T09:42:31.774Z,0.50
2023-05-06T09:45:07.425Z,0.50
2023-05-06T09:47:38.469Z,1.77
2023-05-06T09:50:06.454Z,0.77
2023-05-06T09:52:34.408Z,1.27
2023-05-06T09:55:02.641Z,0.50
2023-05-06T09:57:31.552Z,0.50
2023-05-06T09:59:59.409Z,0.50
2023-05-06T10:02:27.653Z,0.50
2023-05-06T10:04:58.066Z,0.50
2023-05-06T10:07:29.265Z,0.50
2023-05-06T10:09:57.752Z,0.50
2023-05-06T10:12:26.704Z,0.50
2023-05-06T10:14:53.966Z,0.50
2023-05-06T10:17:27.024Z,0.90
2023-05-06T10:19:59.268Z,0.50
2023-05-06T10:22:39.616Z,0.50
2023-05-06T10:25:25.543Z,1.00
2023-05-06T10:27:53.517Z,0.60
2023-05-06T10:30:21.654Z,0.80
2023-05-06T10:32:51.568Z,1.53
2023-05-06T10:35:51.023Z,1.27
2023-05-06T10:38:31.032Z,1.23
2023-05-06T10:40:59.211Z,0.50
2023-05-06T10:43:32.037Z,0.50
2023-05-06T10:46:04.627Z,0.50
2023-05-06T10:48:33.147Z,0.50
2023-05-06T10:51:33.324Z,0.60
2023-05-06T10:54:07.103Z,0.50
2023-05-06T10:57:10.512Z,0.67
2023-05-06T10:59:37.861Z,1.07
2023-05-06T11:02:05.152Z,0.77
2023-05-06T11:04:32.557Z,0.50
2023-05-06T11:07:13.919Z,0.50
2023-05-06T11:10:05.559Z,1.07
2023-05-06T11:12:52.877Z,0.57
2023-05-06T11:15:21.700Z,0.90
2023-05-06T11:17:48.953Z,1.03
2023-05-06T11:20:24.309Z,1.10
2023-05-06T11:22:52.158Z,0.70
2023-05-06T11:25:47.735Z,1.03
2023-05-06T11:28:15.625Z,1.10
2023-05-06T11:30:44.644Z,1.27
2023-05-06T11:33:23.036Z,1.13
2023-05-06T11:35:51.151Z,0.90
2023-05-06T11:38:18.478Z,0.93
2023-05-06T11:40:45.799Z,1.13
2023-05-06T11:43:17.105Z,1.13
2023-05-06T11:45:45.413Z,1.13
2023-05-06T11:48:16.604Z,1.53
2023-05-06T11:50:50.625Z,1.17
2023-05-06T11:53:23.406Z,0.93
2023-05-06T11:55:53.081Z,0.93
2023-05-06T11:58:25.172Z,0.97
2023-05-06T12:01:03.256Z,0.70
2023-05-06T12:03:32.710Z,0.80
2023-05-06T12:06:00.772Z,0.50
2023-05-06T12:08:31.316Z,0.50
2023-05-06T12:11:01.849Z,0.50
2023-05-06T12:13:30.221Z,0.50
2023-05-06T12:15:59.918Z,0.93
2023-05-06T12:18:28.011Z,0.60
2023-05-06T12:20:56.543Z,0.50
2023-05-06T12:23:24.122Z,0.50
2023-05-06T12:26:03.123Z,0.80
2023-05-06T12:28:32.297Z,0.50
2023-05-06T12:31:00.127Z,0.50
2023-05-06T12:33:27.787Z,0.50
2023-05-06T12:36:07.901Z,0.50
2023-05-06T12:38:35.303Z,0.60
2023-05-06T12:41:04.492Z,0.50
2023-05-06T12:43:32.706Z,0.50
2023-05-06T12:46:07.739Z,0.50
2023-05-06T12:48:35.278Z,0.63
2023-05-06T12:51:21.151Z,0.53
2023-05-06T12:53:48.428Z,1.07
2023-05-06T12:56:15.537Z,1.07
2023-05-06T12:58:42.753Z,1.43
2023-05-06T13:01:10.481Z,0.90
2023-05-06T13:03:41.164Z,1.10
2023-05-06T13:06:08.646Z,0.63
2023-05-06T13:08:36.444Z,0.57
2023-05-06T13:11:04.090Z,0.60
2023-05-06T13:13:31.942Z,0.50
2023-05-06T13:15:59.913Z,0.50
2023-05-06T13:18:27.471Z,0.50
2023-05-06T13:20:54.761Z,0.53
2023-05-06T13:23:22.060Z,0.60
2023-05-06T13:26:03.325Z,0.80
2023-05-06T13:28:33.271Z,0.50
2023-05-06T13:31:00.918Z,0.50
2023-05-06T13:33:28.456Z,0.50
2023-05-06T13:35:56.146Z,0.50
2023-05-06T13:38:23.517Z,0.50
2023-05-06T13:40:54.656Z,0.90
2023-05-06T13:43:25.057Z,0.50
2023-05-06T13:45:53.220Z,0.60
2023-05-06T13:48:20.927Z,0.80
2023-05-06T13:50:48.516Z,1.03
2023-05-06T13:53:16.708Z,1.60
2023-05-06T13:55:44.401Z,0.90
2023-05-06T13:58:11.690Z,0.90
2023-05-06T14:00:39.193Z,0.70
2023-05-06T14:03:06.656Z,1.07
2023-05-06T14:05:34.076Z,0.57
2023-05-06T14:08:02.320Z,0.50
2023-05-06T14:10:30.297Z,0.50
2023-05-06T14:12:57.625Z,0.50
2023-05-06T14:15:25.301Z,0.50
2023-05-06T14:17:52.650Z,0.60
2023-05-06T14:20:20.058Z,0.93
2023-05-06T14:22:49.316Z,0.93
2023-05-06T14:25:17.166Z,0.90
2023-05-06T14:27:45.724Z,0.93
2023-05-06T14:30:13.754Z,0.97
2023-05-06T14:32:41.329Z,1.03
2023-05-06T14:35:10.019Z,0.83
2023-05-06T14:37:38.064Z,0.70
2023-05-06T14:40:06.926Z,0.53
2023-05-06T14:42:36.175Z,0.60
2023-05-06T14:45:04.157Z,0.63
2023-05-06T14:47:32.102Z,0.50
2023-05-06T14:50:00.428Z,0.50
2023-05-06T14:52:27.681Z,0.50
2023-05-06T14:54:54.920Z,0.70
2023-05-06T14:57:24.208Z,0.50
2023-05-06T14:59:52.301Z,0.80
2023-05-06T15:02:19.594Z,0.83
2023-05-06T15:04:46.975Z,0.90
2023-05-06T15:07:14.131Z,1.03
2023-05-06T15:09:44.192Z,0.93
2023-05-06T15:12:11.886Z,1.00
2023-05-06T15:14:39.820Z,1.37
2023-05-06T15:17:07.186Z,2.17
2023-05-06T15:19:34.870Z,0.53
2023-05-06T15:22:02.267Z,0.60
2023-05-06T15:24:29.784Z,0.50
2023-05-06T15:26:57.555Z,0.50
2023-05-06T15:29:25.020Z,0.50
2023-05-06T15:31:52.285Z,1.37
2023-05-06T15:34:20.959Z,0.90
2023-05-06T15:36:53.775Z,0.90
2023-05-06T15:39:21.229Z,0.70
2023-05-06T15:41:48.887Z,0.83
2023-05-06T15:44:16.630Z,0.90
2023-05-06T15:46:44.289Z,0.97
2023-05-06T15:51:41.812Z,0.90
2023-05-06T15:54:09.428Z,0.97
2023-05-06T15:56:40.903Z,0.73
2023-05-06T15:59:08.881Z,0.83
2023-05-06T16:02:18.760Z,0.70
2023-05-06T16:04:25.158Z,0.70
2023-05-06T16:06:52.660Z,0.60
2023-05-06T16:09:19.984Z,0.87
2023-05-06T16:11:47.329Z,0.80
2023-05-06T16:14:14.543Z,0.90
2023-05-06T16:16:42.446Z,0.87
2023-05-06T16:19:10.065Z,1.13
2023-05-06T16:21:37.670Z,0.70
2023-05-06T16:24:05.150Z,0.53
2023-05-06T16:26:32.730Z,0.50
2023-05-06T16:29:02.262Z,0.60
2023-05-06T16:31:29.924Z,0.60
2023-05-06T16:33:57.547Z,0.70
2023-05-06T16:36:24.960Z,0.50
2023-05-06T16:38:52.352Z,0.50
2023-05-06T16:41:19.820Z,0.90
2023-05-06T16:43:47.234Z,0.97
2023-05-06T16:46:14.999Z,0.87
2023-05-06T16:48:42.726Z,1.13
2023-05-06T16:51:10.812Z,0.90
2023-05-06T16:53:38.535Z,0.70
2023-05-06T16:56:06.294Z,0.60
2023-05-06T16:58:33.929Z,0.57
2023-05-06T17:01:01.382Z,0.60
2023-05-06T17:03:29.038Z,0.50
2023-05-06T17:05:56.587Z,0.50
2023-05-06T17:08:26.924Z,0.67
2023-05-06T17:10:54.566Z,0.50
2023-05-06T17:13:21.862Z,0.60
2023-05-06T17:15:49.576Z,0.93
2023-05-06T17:18:17.064Z,0.83
2023-05-06T17:20:55.082Z,0.83
2023-05-06T17:23:24.210Z,0.60
2023-05-06T17:25:51.899Z,0.67
2023-05-06T17:28:19.489Z,0.80
2023-05-06T17:30:47.243Z,0.87
2023-05-06T17:33:14.496Z,0.97
2023-05-06T17:35:41.991Z,1.27
2023-05-06T17:38:12.423Z,0.90
2023-05-06T17:40:39.945Z,1.00
2023-05-06T17:43:07.587Z,0.97
2023-05-06T17:45:35.323Z,0.63
2023-05-06T17:48:03.072Z,0.50
2023-05-06T17:50:30.643Z,0.50
2023-05-06T17:52:58.426Z,0.50
2023-05-06T17:55:25.927Z,0.50
2023-05-06T17:57:53.732Z,0.50
2023-05-06T18:00:22.114Z,0.87
2023-05-06T18:02:49.494Z,0.90
2023-05-06T18:05:17.349Z,0.90
2023-05-06T18:07:44.709Z,1.07
2023-05-06T18:10:11.959Z,1.13
2023-05-06T18:12:39.481Z,1.00
2023-05-06T18:15:07.787Z,1.03
2023-05-06T18:17:35.042Z,0.60
2023-05-06T18:20:02.545Z,0.50
2023-05-06T18:22:30.298Z,0.40
2023-05-06T18:24:57.821Z,0.47
2023-05-06T18:27:25.587Z,0.50
2023-05-06T18:29:53.154Z,0.60
2023-05-06T18:32:21.349Z,0.97
2023-05-06T18:34:48.854Z,1.80
2023-05-06T18:37:16.125Z,1.23
2023-05-06T18:39:43.569Z,1.33
2023-05-06T18:42:11.528Z,1.33
2023-05-06T18:44:39.230Z,0.97
2023-05-06T18:47:06.896Z,1.17
2023-05-06T18:49:35.700Z,0.70
2023-05-06T18:52:03.804Z,0.63
2023-05-06T18:54:32.211Z,0.50
2023-05-06T18:57:01.615Z,0.50
2023-05-06T18:59:29.797Z,0.53
2023-05-06T19:01:57.627Z,0.50
2023-05-06T19:04:25.370Z,0.50
2023-05-06T19:06:52.699Z,0.73
2023-05-06T19:09:21.549Z,1.20
2023-05-06T19:11:48.854Z,1.43
2023-05-06T19:14:16.066Z,1.43
2023-05-06T19:16:43.378Z,1.70
2023-05-06T19:19:11.523Z,1.63
2023-05-06T19:21:38.945Z,1.47
2023-05-06T19:24:06.700Z,2.57
2023-05-06T19:26:34.816Z,0.70
2023-05-06T19:29:02.354Z,0.50
2023-05-06T19:31:30.287Z,0.50
2023-05-06T19:33:57.593Z,0.60
2023-05-06T19:36:24.914Z,0.60
2023-05-06T19:38:52.564Z,0.90
2023-05-06T19:41:19.914Z,1.50
2023-05-06T19:43:47.235Z,1.60
2023-05-06T19:46:15.756Z,1.73
2023-05-06T19:48:43.384Z,1.83
2023-05-06T19:51:10.991Z,2.17
2023-05-06T19:53:38.263Z,1.00
2023-05-06T19:56:10.290Z,0.70
2023-05-06T19:58:37.788Z,2.23
2023-05-06T20:01:05.278Z,0.80
2023-05-06T20:03:33.861Z,0.67
2023-05-06T20:06:02.261Z,0.50
2023-05-06T20:08:29.763Z,0.50
2023-05-06T20:10:57.147Z,0.50
2023-05-06T20:13:24.734Z,0.60
2023-05-06T20:15:52.068Z,1.63
2023-05-06T20:18:19.625Z,1.73
2023-05-06T20:20:47.569Z,1.90
2023-05-06T20:23:14.994Z,1.57
2023-05-06T20:25:42.589Z,1.73
2023-05-06T20:28:10.208Z,1.27
2023-05-06T20:30:38.749Z,1.40
2023-05-06T20:33:06.407Z,1.00
2023-05-06T20:35:38.540Z,0.67
2023-05-06T20:38:07.088Z,0.93
2023-05-06T20:40:36.081Z,0.80
2023-05-06T20:43:03.657Z,0.60
2023-05-06T20:45:31.784Z,0.50
2023-05-06T20:47:59.914Z,0.60
2023-05-06T20:50:28.900Z,0.50
2023-05-06T20:52:57.219Z,0.50
2023-05-06T20:55:25.649Z,0.70
2023-05-06T20:57:52.955Z,1.13
2023-05-06T21:00:21.045Z,1.57
2023-05-06T21:02:48.417Z,1.93
2023-05-06T21:05:16.570Z,1.53
2023-05-06T21:07:44.041Z,2.40
2023-05-06T21:10:11.554Z,1.73
2023-05-06T21:12:39.454Z,1.23
2023-05-06T21:15:07.448Z,1.17
2023-05-06T21:17:34.979Z,0.93
2023-05-06T21:20:04.075Z,0.50
2023-05-06T21:22:32.651Z,0.60
2023-05-06T21:25:00.484Z,0.60
2023-05-06T21:27:27.794Z,0.70
2023-05-06T21:29:55.423Z,0.60
2023-05-06T21:32:22.922Z,0.97
2023-05-06T21:34:50.234Z,2.03
2023-05-06T21:37:17.775Z,2.10
2023-05-06T21:39:45.280Z,2.10
2023-05-06T21:42:12.514Z,2.40
2023-05-06T21:44:39.768Z,2.23
2023-05-06T21:47:07.432Z,1.90
2023-05-06T21:49:34.641Z,1.53
2023-05-06T21:52:01.912Z,0.60
2023-05-06T21:54:31.925Z,1.13
2023-05-06T21:56:59.303Z,0.60
2023-05-06T21:59:26.902Z,0.60
2023-05-06T22:01:54.363Z,0.60
2023-05-06T22:04:21.806Z,1.53
2023-05-06T22:06:49.559Z,1.70
2023-05-06T22:09:16.709Z,2.20
2023-05-06T22:11:43.971Z,2.47
2023-05-06T22:14:11.539Z,2.07
2023-05-06T22:16:39.834Z,1.77
2023-05-06T22:19:07.976Z,2.13
2023-05-06T22:21:35.875Z,0.93
2023-05-06T22:24:03.248Z,0.80
2023-05-06T22:26:33.504Z,0.90
2023-05-06T22:29:01.189Z,0.60
2023-05-06T22:31:28.992Z,0.63
2023-05-06T22:33:58.302Z,0.70
2023-05-06T22:36:29.705Z,0.70
2023-05-06T22:38:56.998Z,0.60
2023-05-06T22:41:24.507Z,0.80
2023-05-06T22:43:52.254Z,1.47
2023-05-06T22:46:19.777Z,2.70
2023-05-06T22:48:47.103Z,2.10
2023-05-06T22:51:17.629Z,2.03
2023-05-06T22:53:45.720Z,2.10
2023-05-06T22:56:13.376Z,2.40
2023-05-06T22:58:40.977Z,2.80
2023-05-06T23:01:08.686Z,1.87
2023-05-06T23:03:36.489Z,1.07
2023-05-06T23:06:06.339Z,0.80
2023-05-06T23:08:33.613Z,0.73
2023-05-06T23:11:01.276Z,0.60
2023-05-06T23:13:29.324Z,0.73
2023-05-06T23:15:56.832Z,0.60
2023-05-06T23:18:24.485Z,1.60
2023-05-06T23:20:52.243Z,1.57
2023-05-06T23:23:19.909Z,2.40
2023-05-06T23:25:47.470Z,2.67
2023-05-06T23:28:15.270Z,2.20
2023-05-06T23:30:42.946Z,3.60
2023-05-06T23:33:10.142Z,2.30
2023-05-06T23:35:37.447Z,2.00
2023-05-06T23:38:04.996Z,0.97
2023-05-06T23:40:32.515Z,0.87
2023-05-06T23:43:00.035Z,0.60
2023-05-06T23:45:27.370Z,0.80
2023-05-06T23:47:55.073Z,0.60
2023-05-06T23:50:22.310Z,1.70
2023-05-06T23:52:49.630Z,2.50
2023-05-06T23:55:17.021Z,2.50
2023-05-06T23:57:44.482Z,2.70
